Main page
METAR-TAF:

METAR-TAF

Airports :

Bahrain International Airport

Bahrain, Bahrain

latitude: 26-16N, longitude: 050-39E, elevation: 2 m

Current weather observation

The report was made 23 minutes ago, at 01:30 UTC
Wind 16 kt from the Northwest
Temperature 15°C
Humidity 59%
Pressure 1022 hPa
Visibility 10 km or more
Few clouds at a height of 2500 ft

METAR: OBBI 200130Z 32016KT 9999 FEW025 15/07 Q1022 NOSIG

Time: 04:53 (01:53 UTC)

Forecast

The report was made 2 hours and 53 minutes ago, at 23:00 UTC
Forecast valid from 20 at 00 UTC to 21 at 06 UTC
Wind 15 kt from the Northwest with gusts up to 25 kt
Visibility 10 km or more
Scattered clouds at a height of 2500 ft
Becoming
from 20 at 18 UTC to 20 at 20 UTC
Wind 15 kt from the West/Northwest

TAF: OBBI 192300Z 2000/2106 32015G25KT 9999 SCT025 BECMG 2018/2020 30015KT

Weather observations and forecasts of more than 4000 airports (METAR and TAF reports).

The available stations are represented by yellow and red dots on the map.

Hover mouse over dot to see the name of the station.

Then click to see weather observations and forecasts.

To change the map : click on the green buttons with a black cross to zoom in, on the green button with a dash to zoom out, or on the green arrows for adjacent maps.


METAR-TAF: